HEAR

El Arish International Airport

El Arish, Egypt
METAR HEAR 181300Z 34006KT 9999 FEW025 28/14 Q1011 NOSIG
Observed Flight Rules
Oct-18 @ 13:00 UTC (20 hours ago) Visual Flight Rules
Wind Visibility Clouds
340° at 6 knots 10,000+ meters
  • Few at 2,500' AGL
Temperatures Readings
Current 28°C / 82°F
Dewpoint 14°C / 57°F
Humidity 42%
Altimeter 29.85" Hg
Pressure 1011 hPa
Elevation 32
METAR HEAR 181300Z 34006KT 9999 FEW025 28/14 Q1011 NOSIG
Observed Flight Rules
Oct-18 @ 13:00 UTC
(20 hours ago)
VFR
Wind Visibility
340° at 6 knots 10,000+ meters
Clouds
  • Few at 2,500' AGL
Temperature Dewpoint
28°C / 82°F 14°C / 57°F
Humidity Altimeter Pressure
42% 29.85" Hg 1011 hPa